sensor_id;sensor_type;location;lat;lon;timestamp;P1;durP1;ratioP1;P2;durP2;ratioP2
60306;SDS011;46155;52.364;6.580;2024-01-06T04:00:17;33.07;;;29.57;;
60306;SDS011;46155;52.364;6.580;2024-01-06T04:02:42;40.83;;;34.23;;
60306;SDS011;46155;52.364;6.580;2024-01-06T04:05:08;35.33;;;31.63;;
60306;SDS011;46155;52.364;6.580;2024-01-06T04:07:33;34.03;;;27.70;;
60306;SDS011;46155;52.364;6.580;2024-01-06T04:09:58;36.97;;;30.23;;
60306;SDS011;46155;52.364;6.580;2024-01-06T04:12:23;40.93;;;32.33;;
60306;SDS011;46155;52.364;6.580;2024-01-06T04:14:49;36.53;;;29.73;;
60306;SDS011;46155;52.364;6.580;2024-01-06T04:17:14;34.27;;;28.40;;
60306;SDS011;46155;52.364;6.580;2024-01-06T04:19:39;35.50;;;28.33;;
60306;SDS011;46155;52.364;6.580;2024-01-06T04:22:04;34.53;;;27.27;;
60306;SDS011;46155;52.364;6.580;2024-01-06T04:24:30;42.40;;;27.53;;
60306;SDS011;46155;52.364;6.580;2024-01-06T04:26:55;32.43;;;29.07;;
60306;SDS011;46155;52.364;6.580;2024-01-06T04:29:20;35.17;;;27.93;;
60306;SDS011;46155;52.364;6.580;2024-01-06T04:31:46;36.53;;;29.10;;
60306;SDS011;46155;52.364;6.580;2024-01-06T04:34:11;32.77;;;26.43;;
60306;SDS011;46155;52.364;6.580;2024-01-06T04:36:36;33.83;;;26.77;;
60306;SDS011;46155;52.364;6.580;2024-01-06T04:39:01;33.13;;;27.30;;
60306;SDS011;46155;52.364;6.580;2024-01-06T04:41:27;36.20;;;27.97;;
60306;SDS011;46155;52.364;6.580;2024-01-06T04:43:52;35.93;;;27.90;;
60306;SDS011;46155;52.364;6.580;2024-01-06T04:46:17;39.27;;;27.70;;
60306;SDS011;46155;52.364;6.580;2024-01-06T04:48:43;41.13;;;32.33;;
60306;SDS011;46155;52.364;6.580;2024-01-06T04:51:08;35.70;;;27.80;;
60306;SDS011;46155;52.364;6.580;2024-01-06T04:53:35;35.17;;;27.57;;
60306;SDS011;46155;52.364;6.580;2024-01-06T04:56:01;37.23;;;29.20;;
60306;SDS011;46155;52.364;6.580;2024-01-06T04:58:26;35.07;;;27.13;;
60306;SDS011;46155;52.364;6.580;2024-01-06T05:00:51;35.03;;;27.93;;
60306;SDS011;46155;52.364;6.580;2024-01-06T05:03:17;36.00;;;26.93;;
60306;SDS011;46155;52.364;6.580;2024-01-06T05:05:43;34.33;;;27.33;;
60306;SDS011;46155;52.364;6.580;2024-01-06T05:08:08;34.10;;;27.50;;
60306;SDS011;46155;52.364;6.580;2024-01-06T05:10:33;31.97;;;28.47;;
60306;SDS011;46155;52.364;6.580;2024-01-06T05:12:58;32.97;;;25.00;;
60306;SDS011;46155;52.364;6.580;2024-01-06T05:15:24;31.83;;;28.43;;
60306;SDS011;46155;52.364;6.580;2024-01-06T05:17:49;32.67;;;27.80;;
60306;SDS011;46155;52.364;6.580;2024-01-06T05:20:14;36.97;;;30.07;;
60306;SDS011;46155;52.364;6.580;2024-01-06T05:22:40;34.77;;;29.67;;
60306;SDS011;46155;52.364;6.580;2024-01-06T05:25:05;37.50;;;27.33;;
60306;SDS011;46155;52.364;6.580;2024-01-06T05:27:31;39.90;;;29.50;;
60306;SDS011;46155;52.364;6.580;2024-01-06T05:29:56;38.53;;;28.27;;
60306;SDS011;46155;52.364;6.580;2024-01-06T05:32:21;37.03;;;30.33;;
60306;SDS011;46155;52.364;6.580;2024-01-06T05:34:48;41.70;;;30.73;;
60306;SDS011;46155;52.364;6.580;2024-01-06T05:37:14;34.80;;;29.93;;
60306;SDS011;46155;52.364;6.580;2024-01-06T05:39:39;37.93;;;28.40;;
60306;SDS011;46155;52.364;6.580;2024-01-06T05:42:05;39.87;;;28.50;;
60306;SDS011;46155;52.364;6.580;2024-01-06T05:44:30;38.00;;;27.07;;
60306;SDS011;46155;52.364;6.580;2024-01-06T05:46:56;35.93;;;29.07;;
60306;SDS011;46155;52.364;6.580;2024-01-06T05:49:21;32.43;;;24.37;;
60306;SDS011;46155;52.364;6.580;2024-01-06T05:51:47;33.13;;;24.90;;
60306;SDS011;46155;52.364;6.580;2024-01-06T05:54:12;30.60;;;26.73;;
60306;SDS011;46155;52.364;6.580;2024-01-06T05:56:38;34.07;;;25.43;;
60306;SDS011;46155;52.364;6.580;2024-01-06T05:59:03;34.70;;;27.13;;
60306;SDS011;46155;52.364;6.580;2024-01-06T06:01:28;35.33;;;29.50;;
60306;SDS011;46155;52.364;6.580;2024-01-06T06:03:54;38.70;;;26.87;;
60306;SDS011;46155;52.364;6.580;2024-01-06T06:06:19;34.00;;;28.53;;
60306;SDS011;46155;52.364;6.580;2024-01-06T06:08:45;38.20;;;29.03;;
60306;SDS011;46155;52.364;6.580;2024-01-06T06:11:10;50.30;;;40.07;;
60306;SDS011;46155;52.364;6.580;2024-01-06T06:13:42;39.13;;;30.50;;
60306;SDS011;46155;52.364;6.580;2024-01-06T06:16:11;40.27;;;30.00;;
60306;SDS011;46155;52.364;6.580;2024-01-06T06:18:39;41.07;;;28.00;;
60306;SDS011;46155;52.364;6.580;2024-01-06T06:21:06;41.00;;;29.23;;
60306;SDS011;46155;52.364;6.580;2024-01-06T06:23:34;39.97;;;28.33;;
60306;SDS011;46155;52.364;6.580;2024-01-06T06:26:03;36.20;;;30.90;;
60306;SDS011;46155;52.364;6.580;2024-01-06T06:28:29;46.13;;;31.43;;
60306;SDS011;46155;52.364;6.580;2024-01-06T06:30:55;41.97;;;30.17;;
60306;SDS011;46155;52.364;6.580;2024-01-06T06:33:20;40.30;;;33.67;;
60306;SDS011;46155;52.364;6.580;2024-01-06T06:35:45;47.10;;;42.13;;
60306;SDS011;46155;52.364;6.580;2024-01-06T06:38:10;41.53;;;31.37;;
60306;SDS011;46155;52.364;6.580;2024-01-06T06:40:36;38.53;;;27.80;;
60306;SDS011;46155;52.364;6.580;2024-01-06T06:43:02;42.27;;;28.00;;
60306;SDS011;46155;52.364;6.580;2024-01-06T06:45:27;49.53;;;29.00;;
60306;SDS011;46155;52.364;6.580;2024-01-06T06:47:52;43.63;;;31.40;;
60306;SDS011;46155;52.364;6.580;2024-01-06T06:50:18;44.50;;;29.87;;
60306;SDS011;46155;52.364;6.580;2024-01-06T06:52:45;43.83;;;30.27;;
60306;SDS011;46155;52.364;6.580;2024-01-06T06:55:11;41.00;;;30.30;;
60306;SDS011;46155;52.364;6.580;2024-01-06T06:57:36;45.33;;;29.10;;
60306;SDS011;46155;52.364;6.580;2024-01-06T07:00:02;42.40;;;30.20;;
60306;SDS011;46155;52.364;6.580;2024-01-06T07:02:27;38.57;;;28.43;;
60306;SDS011;46155;52.364;6.580;2024-01-06T07:04:53;42.70;;;30.90;;
60306;SDS011;46155;52.364;6.580;2024-01-06T07:07:18;42.87;;;32.97;;
60306;SDS011;46155;52.364;6.580;2024-01-06T07:09:44;43.83;;;34.60;;
60306;SDS011;46155;52.364;6.580;2024-01-06T07:12:09;42.57;;;33.53;;
60306;SDS011;46155;52.364;6.580;2024-01-06T07:14:34;37.80;;;30.00;;
60306;SDS011;46155;52.364;6.580;2024-01-06T07:17:00;38.03;;;34.10;;
60306;SDS011;46155;52.364;6.580;2024-01-06T07:19:25;36.90;;;32.97;;
60306;SDS011;46155;52.364;6.580;2024-01-06T07:21:50;41.93;;;34.23;;
60306;SDS011;46155;52.364;6.580;2024-01-06T07:24:15;36.93;;;31.23;;
60306;SDS011;46155;52.364;6.580;2024-01-06T07:26:41;41.17;;;30.00;;
60306;SDS011;46155;52.364;6.580;2024-01-06T07:29:06;43.57;;;30.73;;
60306;SDS011;46155;52.364;6.580;2024-01-06T07:31:33;34.07;;;29.37;;
60306;SDS011;46155;52.364;6.580;2024-01-06T07:33:59;35.93;;;28.97;;
60306;SDS011;46155;52.364;6.580;2024-01-06T07:36:24;39.37;;;28.60;;
60306;SDS011;46155;52.364;6.580;2024-01-06T07:38:49;33.63;;;25.87;;
60306;SDS011;46155;52.364;6.580;2024-01-06T07:41:15;29.53;;;26.33;;
60306;SDS011;46155;52.364;6.580;2024-01-06T07:43:40;37.83;;;27.37;;
60306;SDS011;46155;52.364;6.580;2024-01-06T07:46:05;33.97;;;29.07;;
60306;SDS011;46155;52.364;6.580;2024-01-06T07:48:32;32.63;;;27.10;;
60306;SDS011;46155;52.364;6.580;2024-01-06T07:50:57;30.73;;;26.30;;
60306;SDS011;46155;52.364;6.580;2024-01-06T07:53:22;30.03;;;26.20;;
60306;SDS011;46155;52.364;6.580;2024-01-06T07:55:47;32.50;;;27.53;;
60306;SDS011;46155;52.364;6.580;2024-01-06T07:58:13;31.23;;;27.60;;
60306;SDS011;46155;52.364;6.580;2024-01-06T08:00:38;35.03;;;26.17;;
60306;SDS011;46155;52.364;6.580;2024-01-06T08:03:03;31.87;;;27.93;;
60306;SDS011;46155;52.364;6.580;2024-01-06T08:05:31;30.60;;;26.40;;
60306;SDS011;46155;52.364;6.580;2024-01-06T08:07:56;34.43;;;26.53;;
60306;SDS011;46155;52.364;6.580;2024-01-06T08:10:21;35.77;;;28.47;;
60306;SDS011;46155;52.364;6.580;2024-01-06T08:12:47;34.60;;;27.87;;
60306;SDS011;46155;52.364;6.580;2024-01-06T08:15:13;32.67;;;24.93;;
60306;SDS011;46155;52.364;6.580;2024-01-06T08:17:38;33.13;;;22.93;;
60306;SDS011;46155;52.364;6.580;2024-01-06T08:20:05;34.57;;;24.60;;
60306;SDS011;46155;52.364;6.580;2024-01-06T08:22:32;34.93;;;25.20;;
60306;SDS011;46155;52.364;6.580;2024-01-06T08:24:57;28.80;;;22.03;;
60306;SDS011;46155;52.364;6.580;2024-01-06T08:27:22;26.73;;;21.50;;
60306;SDS011;46155;52.364;6.580;2024-01-06T08:29:48;31.73;;;24.67;;
60306;SDS011;46155;52.364;6.580;2024-01-06T08:32:14;33.33;;;26.27;;
60306;SDS011;46155;52.364;6.580;2024-01-06T08:34:41;31.50;;;25.53;;
60306;SDS011;46155;52.364;6.580;2024-01-06T08:37:06;35.03;;;25.63;;
60306;SDS011;46155;52.364;6.580;2024-01-06T08:39:32;35.73;;;25.43;;
60306;SDS011;46155;52.364;6.580;2024-01-06T08:41:57;31.27;;;24.73;;
60306;SDS011;46155;52.364;6.580;2024-01-06T08:44:23;24.33;;;19.73;;
60306;SDS011;46155;52.364;6.580;2024-01-06T08:46:48;27.30;;;21.00;;
60306;SDS011;46155;52.364;6.580;2024-01-06T08:49:14;27.50;;;20.97;;
60306;SDS011;46155;52.364;6.580;2024-01-06T08:51:39;25.70;;;19.77;;
60306;SDS011;46155;52.364;6.580;2024-01-06T08:54:04;36.00;;;24.47;;
60306;SDS011;46155;52.364;6.580;2024-01-06T08:56:30;29.33;;;20.60;;
60306;SDS011;46155;52.364;6.580;2024-01-06T08:58:56;28.43;;;23.17;;
60306;SDS011;46155;52.364;6.580;2024-01-06T09:01:22;30.60;;;20.87;;
60306;SDS011;46155;52.364;6.580;2024-01-06T09:03:47;29.80;;;23.10;;
60306;SDS011;46155;52.364;6.580;2024-01-06T09:06:14;31.47;;;23.83;;
60306;SDS011;46155;52.364;6.580;2024-01-06T09:08:39;26.60;;;22.83;;
60306;SDS011;46155;52.364;6.580;2024-01-06T09:11:05;33.40;;;21.97;;
60306;SDS011;46155;52.364;6.580;2024-01-06T09:13:30;25.73;;;21.73;;
60306;SDS011;46155;52.364;6.580;2024-01-06T09:15:57;26.67;;;21.30;;
60306;SDS011;46155;52.364;6.580;2024-01-06T09:18:25;26.53;;;22.57;;
60306;SDS011;46155;52.364;6.580;2024-01-06T09:20:51;30.10;;;21.40;;
60306;SDS011;46155;52.364;6.580;2024-01-06T09:23:16;25.63;;;22.87;;
60306;SDS011;46155;52.364;6.580;2024-01-06T09:25:41;28.33;;;25.23;;
60306;SDS011;46155;52.364;6.580;2024-01-06T09:28:07;25.90;;;19.57;;
60306;SDS011;46155;52.364;6.580;2024-01-06T09:30:32;29.30;;;22.77;;
60306;SDS011;46155;52.364;6.580;2024-01-06T09:32:57;31.97;;;24.27;;
60306;SDS011;46155;52.364;6.580;2024-01-06T09:35:23;28.03;;;22.27;;
60306;SDS011;46155;52.364;6.580;2024-01-06T09:37:48;31.93;;;20.33;;
60306;SDS011;46155;52.364;6.580;2024-01-06T09:40:14;26.77;;;19.93;;
60306;SDS011;46155;52.364;6.580;2024-01-06T09:42:49;26.37;;;18.17;;
60306;SDS011;46155;52.364;6.580;2024-01-06T09:45:18;22.57;;;18.70;;
60306;SDS011;46155;52.364;6.580;2024-01-06T09:47:47;20.97;;;16.70;;
60306;SDS011;46155;52.364;6.580;2024-01-06T09:50:14;21.70;;;15.57;;
60306;SDS011;46155;52.364;6.580;2024-01-06T09:52:45;21.93;;;15.03;;
60306;SDS011;46155;52.364;6.580;2024-01-06T09:55:17;26.50;;;16.47;;
60306;SDS011;46155;52.364;6.580;2024-01-06T09:57:47;19.67;;;14.87;;
60306;SDS011;46155;52.364;6.580;2024-01-06T10:00:12;24.87;;;15.60;;
60306;SDS011;46155;52.364;6.580;2024-01-06T10:02:38;27.47;;;16.27;;
60306;SDS011;46155;52.364;6.580;2024-01-06T10:05:04;24.00;;;15.73;;
60306;SDS011;46155;52.364;6.580;2024-01-06T10:07:30;23.07;;;15.77;;
60306;SDS011;46155;52.364;6.580;2024-01-06T10:09:55;23.27;;;18.70;;
60306;SDS011;46155;52.364;6.580;2024-01-06T10:12:24;23.67;;;16.17;;
60306;SDS011;46155;52.364;6.580;2024-01-06T10:17:18;26.57;;;18.73;;
60306;SDS011;46155;52.364;6.580;2024-01-06T10:19:44;22.27;;;16.77;;
60306;SDS011;46155;52.364;6.580;2024-01-06T10:22:11;30.00;;;19.93;;
60306;SDS011;46155;52.364;6.580;2024-01-06T10:24:39;26.77;;;17.83;;
60306;SDS011;46155;52.364;6.580;2024-01-06T10:27:04;22.73;;;18.43;;
60306;SDS011;46155;52.364;6.580;2024-01-06T10:29:30;21.13;;;16.87;;
60306;SDS011;46155;52.364;6.580;2024-01-06T10:31:55;28.63;;;19.57;;
60306;SDS011;46155;52.364;6.580;2024-01-06T10:34:21;24.73;;;17.87;;
60306;SDS011;46155;52.364;6.580;2024-01-06T10:36:48;21.67;;;16.10;;
60306;SDS011;46155;52.364;6.580;2024-01-06T10:39:14;26.07;;;17.97;;
60306;SDS011;46155;52.364;6.580;2024-01-06T10:41:43;34.40;;;21.43;;
60306;SDS011;46155;52.364;6.580;2024-01-06T10:44:09;20.60;;;16.03;;
60306;SDS011;46155;52.364;6.580;2024-01-06T10:46:36;23.17;;;16.27;;
60306;SDS011;46155;52.364;6.580;2024-01-06T10:49:03;23.27;;;16.37;;
60306;SDS011;46155;52.364;6.580;2024-01-06T10:51:30;19.10;;;15.40;;
60306;SDS011;46155;52.364;6.580;2024-01-06T10:53:57;23.90;;;15.73;;
60306;SDS011;46155;52.364;6.580;2024-01-06T10:56:25;24.50;;;17.00;;
60306;SDS011;46155;52.364;6.580;2024-01-06T10:58:50;21.80;;;17.43;;
60306;SDS011;46155;52.364;6.580;2024-01-06T11:01:22;22.57;;;16.87;;
60306;SDS011;46155;52.364;6.580;2024-01-06T11:03:49;24.23;;;17.63;;
60306;SDS011;46155;52.364;6.580;2024-01-06T11:06:15;20.27;;;15.10;;
60306;SDS011;46155;52.364;6.580;2024-01-06T11:08:53;21.40;;;17.07;;
60306;SDS011;46155;52.364;6.580;2024-01-06T11:11:24;22.90;;;17.93;;
60306;SDS011;46155;52.364;6.580;2024-01-06T11:13:50;18.53;;;15.30;;
60306;SDS011;46155;52.364;6.580;2024-01-06T11:16:34;20.87;;;15.23;;
60306;SDS011;46155;52.364;6.580;2024-01-06T11:19:00;26.40;;;17.87;;
60306;SDS011;46155;52.364;6.580;2024-01-06T11:21:26;23.67;;;18.20;;
60306;SDS011;46155;52.364;6.580;2024-01-06T11:26:32;21.87;;;16.93;;
60306;SDS011;46155;52.364;6.580;2024-01-06T11:28:58;22.07;;;18.80;;
60306;SDS011;46155;52.364;6.580;2024-01-06T11:31:28;23.43;;;19.67;;
60306;SDS011;46155;52.364;6.580;2024-01-06T11:33:57;26.70;;;19.57;;
60306;SDS011;46155;52.364;6.580;2024-01-06T11:36:43;29.43;;;21.20;;
60306;SDS011;46155;52.364;6.580;2024-01-06T11:39:09;20.97;;;16.10;;
60306;SDS011;46155;52.364;6.580;2024-01-06T11:42:00;19.30;;;14.97;;
60306;SDS011;46155;52.364;6.580;2024-01-06T11:44:27;24.97;;;17.70;;
60306;SDS011;46155;52.364;6.580;2024-01-06T11:46:57;23.57;;;16.30;;
60306;SDS011;46155;52.364;6.580;2024-01-06T11:49:26;22.03;;;16.50;;
60306;SDS011;46155;52.364;6.580;2024-01-06T11:51:53;27.07;;;18.27;;
60306;SDS011;46155;52.364;6.580;2024-01-06T11:54:18;24.37;;;19.63;;
60306;SDS011;46155;52.364;6.580;2024-01-06T11:56:46;23.53;;;17.43;;
60306;SDS011;46155;52.364;6.580;2024-01-06T11:59:11;22.77;;;17.33;;
60306;SDS011;46155;52.364;6.580;2024-01-06T12:01:37;24.30;;;17.80;;
60306;SDS011;46155;52.364;6.580;2024-01-06T12:04:03;28.87;;;19.33;;
60306;SDS011;46155;52.364;6.580;2024-01-06T12:06:30;25.27;;;19.30;;
60306;SDS011;46155;52.364;6.580;2024-01-06T12:09:05;25.07;;;17.87;;
60306;SDS011;46155;52.364;6.580;2024-01-06T12:11:40;22.63;;;16.57;;
60306;SDS011;46155;52.364;6.580;2024-01-06T12:14:05;22.40;;;15.53;;
60306;SDS011;46155;52.364;6.580;2024-01-06T12:16:31;22.60;;;16.33;;
60306;SDS011;46155;52.364;6.580;2024-01-06T12:18:57;28.23;;;16.73;;
60306;SDS011;46155;52.364;6.580;2024-01-06T12:21:25;20.03;;;15.83;;
60306;SDS011;46155;52.364;6.580;2024-01-06T12:23:54;20.07;;;15.93;;
60306;SDS011;46155;52.364;6.580;2024-01-06T12:26:19;22.67;;;16.60;;
60306;SDS011;46155;52.364;6.580;2024-01-06T12:28:45;22.77;;;17.00;;
60306;SDS011;46155;52.364;6.580;2024-01-06T12:31:11;25.57;;;18.63;;
60306;SDS011;46155;52.364;6.580;2024-01-06T12:33:37;23.30;;;16.97;;
60306;SDS011;46155;52.364;6.580;2024-01-06T12:36:04;23.50;;;17.47;;
60306;SDS011;46155;52.364;6.580;2024-01-06T12:38:31;24.73;;;15.73;;
60306;SDS011;46155;52.364;6.580;2024-01-06T12:40:56;25.13;;;18.17;;
60306;SDS011;46155;52.364;6.580;2024-01-06T12:43:21;23.50;;;16.60;;
60306;SDS011;46155;52.364;6.580;2024-01-06T12:45:47;27.80;;;17.33;;
60306;SDS011;46155;52.364;6.580;2024-01-06T12:48:12;26.83;;;17.60;;
60306;SDS011;46155;52.364;6.580;2024-01-06T12:50:38;29.70;;;17.97;;
60306;SDS011;46155;52.364;6.580;2024-01-06T12:53:03;25.50;;;17.93;;
60306;SDS011;46155;52.364;6.580;2024-01-06T12:55:28;30.07;;;19.80;;
60306;SDS011;46155;52.364;6.580;2024-01-06T12:57:54;27.60;;;19.27;;
60306;SDS011;46155;52.364;6.580;2024-01-06T13:00:19;30.23;;;22.10;;
60306;SDS011;46155;52.364;6.580;2024-01-06T13:02:45;32.47;;;20.93;;
60306;SDS011;46155;52.364;6.580;2024-01-06T13:05:10;26.10;;;19.93;;
60306;SDS011;46155;52.364;6.580;2024-01-06T13:07:38;28.33;;;22.07;;
60306;SDS011;46155;52.364;6.580;2024-01-06T13:10:05;27.77;;;21.17;;
60306;SDS011;46155;52.364;6.580;2024-01-06T13:12:30;26.03;;;19.40;;
60306;SDS011;46155;52.364;6.580;2024-01-06T13:14:56;29.07;;;20.33;;
60306;SDS011;46155;52.364;6.580;2024-01-06T13:17:21;27.17;;;20.03;;
60306;SDS011;46155;52.364;6.580;2024-01-06T13:19:46;25.87;;;19.97;;
60306;SDS011;46155;52.364;6.580;2024-01-06T13:22:12;24.73;;;18.53;;
60306;SDS011;46155;52.364;6.580;2024-01-06T13:24:38;27.47;;;19.83;;
60306;SDS011;46155;52.364;6.580;2024-01-06T13:27:05;25.50;;;21.43;;
60306;SDS011;46155;52.364;6.580;2024-01-06T13:29:31;30.00;;;20.80;;
60306;SDS011;46155;52.364;6.580;2024-01-06T13:31:56;27.57;;;21.60;;
60306;SDS011;46155;52.364;6.580;2024-01-06T13:34:22;27.93;;;20.50;;
60306;SDS011;46155;52.364;6.580;2024-01-06T13:36:47;34.57;;;23.03;;
60306;SDS011;46155;52.364;6.580;2024-01-06T13:39:13;36.77;;;24.63;;
60306;SDS011;46155;52.364;6.580;2024-01-06T13:41:45;28.93;;;21.87;;
60306;SDS011;46155;52.364;6.580;2024-01-06T13:44:14;30.83;;;22.80;;
60306;SDS011;46155;52.364;6.580;2024-01-06T13:46:39;29.67;;;20.90;;
60306;SDS011;46155;52.364;6.580;2024-01-06T13:49:10;29.27;;;21.37;;
60306;SDS011;46155;52.364;6.580;2024-01-06T13:51:36;35.93;;;23.90;;
60306;SDS011;46155;52.364;6.580;2024-01-06T13:54:02;31.83;;;20.83;;
60306;SDS011;46155;52.364;6.580;2024-01-06T13:56:28;31.73;;;22.13;;
60306;SDS011;46155;52.364;6.580;2024-01-06T13:58:53;31.20;;;20.47;;
60306;SDS011;46155;52.364;6.580;2024-01-06T14:01:18;28.20;;;19.47;;
60306;SDS011;46155;52.364;6.580;2024-01-06T14:03:44;28.60;;;18.70;;
60306;SDS011;46155;52.364;6.580;2024-01-06T14:06:09;27.23;;;19.57;;
60306;SDS011;46155;52.364;6.580;2024-01-06T14:08:35;28.27;;;19.97;;
60306;SDS011;46155;52.364;6.580;2024-01-06T14:11:00;29.07;;;19.50;;
60306;SDS011;46155;52.364;6.580;2024-01-06T14:13:25;29.20;;;20.53;;
60306;SDS011;46155;52.364;6.580;2024-01-06T14:15:52;31.70;;;25.80;;
60306;SDS011;46155;52.364;6.580;2024-01-06T14:18:17;32.40;;;22.30;;
60306;SDS011;46155;52.364;6.580;2024-01-06T14:20:42;28.63;;;20.37;;
60306;SDS011;46155;52.364;6.580;2024-01-06T14:23:08;30.63;;;20.23;;
60306;SDS011;46155;52.364;6.580;2024-01-06T14:25:35;23.10;;;16.73;;
60306;SDS011;46155;52.364;6.580;2024-01-06T14:28:00;27.00;;;19.23;;
60306;SDS011;46155;52.364;6.580;2024-01-06T14:30:26;29.00;;;16.77;;
60306;SDS011;46155;52.364;6.580;2024-01-06T14:32:51;24.93;;;17.97;;
60306;SDS011;46155;52.364;6.580;2024-01-06T14:35:17;26.37;;;17.80;;
60306;SDS011;46155;52.364;6.580;2024-01-06T14:37:42;25.63;;;19.97;;
60306;SDS011;46155;52.364;6.580;2024-01-06T14:40:09;26.13;;;18.93;;
60306;SDS011;46155;52.364;6.580;2024-01-06T14:42:37;27.87;;;19.17;;
60306;SDS011;46155;52.364;6.580;2024-01-06T14:45:02;32.90;;;21.27;;
60306;SDS011;46155;52.364;6.580;2024-01-06T14:47:28;29.27;;;20.87;;
60306;SDS011;46155;52.364;6.580;2024-01-06T14:49:53;30.23;;;22.47;;
60306;SDS011;46155;52.364;6.580;2024-01-06T14:52:18;32.03;;;19.13;;
60306;SDS011;46155;52.364;6.580;2024-01-06T14:54:44;31.53;;;20.30;;
60306;SDS011;46155;52.364;6.580;2024-01-06T14:57:09;33.63;;;21.37;;
60306;SDS011;46155;52.364;6.580;2024-01-06T14:59:35;32.43;;;21.23;;
60306;SDS011;46155;52.364;6.580;2024-01-06T15:02:02;30.37;;;20.93;;
60306;SDS011;46155;52.364;6.580;2024-01-06T15:04:27;27.97;;;18.50;;
60306;SDS011;46155;52.364;6.580;2024-01-06T15:06:53;27.87;;;18.87;;
60306;SDS011;46155;52.364;6.580;2024-01-06T15:09:19;26.80;;;18.70;;
60306;SDS011;46155;52.364;6.580;2024-01-06T15:11:45;29.27;;;17.30;;
60306;SDS011;46155;52.364;6.580;2024-01-06T15:14:11;38.40;;;23.07;;
60306;SDS011;46155;52.364;6.580;2024-01-06T15:16:37;40.37;;;20.60;;
60306;SDS011;46155;52.364;6.580;2024-01-06T15:19:02;26.77;;;17.33;;
60306;SDS011;46155;52.364;6.580;2024-01-06T15:21:28;28.70;;;19.77;;
60306;SDS011;46155;52.364;6.580;2024-01-06T15:23:58;37.50;;;21.80;;
60306;SDS011;46155;52.364;6.580;2024-01-06T15:26:24;33.30;;;20.60;;
60306;SDS011;46155;52.364;6.580;2024-01-06T15:28:49;32.27;;;20.60;;
60306;SDS011;46155;52.364;6.580;2024-01-06T15:31:15;29.53;;;20.10;;
60306;SDS011;46155;52.364;6.580;2024-01-06T15:33:40;36.97;;;23.27;;
60306;SDS011;46155;52.364;6.580;2024-01-06T15:36:07;29.67;;;20.97;;
60306;SDS011;46155;52.364;6.580;2024-01-06T15:38:32;27.23;;;20.07;;
60306;SDS011;46155;52.364;6.580;2024-01-06T15:40:58;29.77;;;19.70;;
60306;SDS011;46155;52.364;6.580;2024-01-06T15:43:23;33.13;;;18.77;;
60306;SDS011;46155;52.364;6.580;2024-01-06T15:45:49;32.67;;;20.57;;
60306;SDS011;46155;52.364;6.580;2024-01-06T15:48:16;28.87;;;19.17;;
60306;SDS011;46155;52.364;6.580;2024-01-06T15:50:41;35.50;;;21.37;;
60306;SDS011;46155;52.364;6.580;2024-01-06T15:53:06;25.77;;;17.73;;
60306;SDS011;46155;52.364;6.580;2024-01-06T15:55:31;29.27;;;19.63;;
60306;SDS011;46155;52.364;6.580;2024-01-06T15:57:57;25.57;;;19.10;;
60306;SDS011;46155;52.364;6.580;2024-01-06T16:00:22;24.37;;;16.93;;
60306;SDS011;46155;52.364;6.580;2024-01-06T16:02:48;28.10;;;18.67;;
60306;SDS011;46155;52.364;6.580;2024-01-06T16:05:13;30.40;;;21.03;;
60306;SDS011;46155;52.364;6.580;2024-01-06T16:07:39;27.57;;;19.47;;
60306;SDS011;46155;52.364;6.580;2024-01-06T16:10:04;26.63;;;18.53;;
60306;SDS011;46155;52.364;6.580;2024-01-06T16:12:31;29.87;;;22.90;;
60306;SDS011;46155;52.364;6.580;2024-01-06T16:17:24;31.17;;;19.67;;
60306;SDS011;46155;52.364;6.580;2024-01-06T16:19:50;27.40;;;20.53;;
60306;SDS011;46155;52.364;6.580;2024-01-06T16:22:15;29.27;;;19.50;;
60306;SDS011;46155;52.364;6.580;2024-01-06T16:24:40;29.43;;;18.83;;
60306;SDS011;46155;52.364;6.580;2024-01-06T16:27:06;30.77;;;18.53;;
60306;SDS011;46155;52.364;6.580;2024-01-06T16:29:31;27.17;;;19.17;;
60306;SDS011;46155;52.364;6.580;2024-01-06T16:31:56;25.07;;;18.57;;
60306;SDS011;46155;52.364;6.580;2024-01-06T16:34:22;28.83;;;18.77;;
60306;SDS011;46155;52.364;6.580;2024-01-06T16:36:47;23.93;;;16.53;;
60306;SDS011;46155;52.364;6.580;2024-01-06T16:39:12;30.40;;;18.27;;
60306;SDS011;46155;52.364;6.580;2024-01-06T16:41:38;28.70;;;18.27;;
60306;SDS011;46155;52.364;6.580;2024-01-06T16:44:04;29.03;;;17.70;;
60306;SDS011;46155;52.364;6.580;2024-01-06T16:46:30;30.93;;;20.27;;
60306;SDS011;46155;52.364;6.580;2024-01-06T16:48:55;22.60;;;16.70;;
60306;SDS011;46155;52.364;6.580;2024-01-06T16:51:21;31.77;;;19.93;;
60306;SDS011;46155;52.364;6.580;2024-01-06T16:53:46;33.40;;;19.23;;
60306;SDS011;46155;52.364;6.580;2024-01-06T16:56:12;25.77;;;17.23;;
60306;SDS011;46155;52.364;6.580;2024-01-06T16:58:38;27.07;;;18.00;;
60306;SDS011;46155;52.364;6.580;2024-01-06T17:01:03;29.57;;;18.90;;
60306;SDS011;46155;52.364;6.580;2024-01-06T17:03:30;24.90;;;16.90;;
60306;SDS011;46155;52.364;6.580;2024-01-06T17:05:56;23.13;;;15.93;;
60306;SDS011;46155;52.364;6.580;2024-01-06T17:08:21;24.30;;;16.83;;
60306;SDS011;46155;52.364;6.580;2024-01-06T17:10:46;24.63;;;17.33;;
60306;SDS011;46155;52.364;6.580;2024-01-06T17:13:12;25.13;;;17.63;;
60306;SDS011;46155;52.364;6.580;2024-01-06T17:15:37;30.83;;;19.60;;
60306;SDS011;46155;52.364;6.580;2024-01-06T17:18:03;24.50;;;17.63;;
60306;SDS011;46155;52.364;6.580;2024-01-06T17:20:28;26.17;;;18.50;;
60306;SDS011;46155;52.364;6.580;2024-01-06T17:22:54;26.60;;;17.73;;
60306;SDS011;46155;52.364;6.580;2024-01-06T17:25:19;29.40;;;19.77;;
60306;SDS011;46155;52.364;6.580;2024-01-06T17:27:44;25.83;;;17.00;;
60306;SDS011;46155;52.364;6.580;2024-01-06T17:30:10;23.87;;;18.30;;
60306;SDS011;46155;52.364;6.580;2024-01-06T17:32:36;24.00;;;19.17;;
60306;SDS011;46155;52.364;6.580;2024-01-06T17:35:02;26.50;;;18.83;;
60306;SDS011;46155;52.364;6.580;2024-01-06T17:37:28;28.67;;;18.97;;
60306;SDS011;46155;52.364;6.580;2024-01-06T17:39:54;22.17;;;15.40;;
60306;SDS011;46155;52.364;6.580;2024-01-06T17:42:19;22.90;;;16.23;;
60306;SDS011;46155;52.364;6.580;2024-01-06T17:44:47;25.33;;;16.67;;
60306;SDS011;46155;52.364;6.580;2024-01-06T17:47:12;22.67;;;17.40;;
60306;SDS011;46155;52.364;6.580;2024-01-06T17:49:39;25.13;;;19.43;;
60306;SDS011;46155;52.364;6.580;2024-01-06T17:52:05;23.63;;;18.30;;
60306;SDS011;46155;52.364;6.580;2024-01-06T17:54:31;26.00;;;16.43;;
60306;SDS011;46155;52.364;6.580;2024-01-06T17:56:56;24.23;;;16.30;;
60306;SDS011;46155;52.364;6.580;2024-01-06T17:59:21;25.97;;;16.97;;
60306;SDS011;46155;52.364;6.580;2024-01-06T18:01:47;22.93;;;16.90;;
60306;SDS011;46155;52.364;6.580;2024-01-06T18:04:12;21.43;;;15.83;;
60306;SDS011;46155;52.364;6.580;2024-01-06T18:06:37;30.50;;;18.33;;
60306;SDS011;46155;52.364;6.580;2024-01-06T18:09:03;24.13;;;17.33;;
60306;SDS011;46155;52.364;6.580;2024-01-06T18:11:30;32.63;;;19.27;;
60306;SDS011;46155;52.364;6.580;2024-01-06T18:13:55;28.23;;;20.10;;
60306;SDS011;46155;52.364;6.580;2024-01-06T18:16:21;23.03;;;18.47;;
60306;SDS011;46155;52.364;6.580;2024-01-06T18:18:47;29.43;;;19.73;;
60306;SDS011;46155;52.364;6.580;2024-01-06T18:21:12;28.97;;;20.37;;